sensor_id;sensor_type;location;lat;lon;timestamp;temperature;humidity
48208;DHT22;33997;53.278;9.708;2023-04-29T00:01:04;9.00;99.90
48208;DHT22;33997;53.278;9.708;2023-04-29T00:03:29;9.00;99.90
48208;DHT22;33997;53.278;9.708;2023-04-29T00:05:57;9.00;99.90
48208;DHT22;33997;53.278;9.708;2023-04-29T00:08:23;9.00;99.90
48208;DHT22;33997;53.278;9.708;2023-04-29T00:10:49;9.00;99.90
48208;DHT22;33997;53.278;9.708;2023-04-29T00:13:15;9.00;99.90
48208;DHT22;33997;53.278;9.708;2023-04-29T00:15:41;9.00;99.90
48208;DHT22;33997;53.278;9.708;2023-04-29T00:18:06;9.00;99.90
48208;DHT22;33997;53.278;9.708;2023-04-29T00:20:33;9.00;99.90
48208;DHT22;33997;53.278;9.708;2023-04-29T00:22:59;9.00;99.90
48208;DHT22;33997;53.278;9.708;2023-04-29T00:25:25;9.00;99.90
48208;DHT22;33997;53.278;9.708;2023-04-29T00:27:50;9.00;99.90
48208;DHT22;33997;53.278;9.708;2023-04-29T00:30:16;9.00;99.90
48208;DHT22;33997;53.278;9.708;2023-04-29T00:32:41;8.90;99.90
48208;DHT22;33997;53.278;9.708;2023-04-29T00:35:08;8.90;99.90
48208;DHT22;33997;53.278;9.708;2023-04-29T00:37:33;8.90;99.80
48208;DHT22;33997;53.278;9.708;2023-04-29T00:40:02;8.80;99.80
48208;DHT22;33997;53.278;9.708;2023-04-29T00:42:30;8.90;99.90
48208;DHT22;33997;53.278;9.708;2023-04-29T00:44:57;8.90;99.90
48208;DHT22;33997;53.278;9.708;2023-04-29T00:47:23;8.80;99.90
48208;DHT22;33997;53.278;9.708;2023-04-29T00:49:48;8.80;99.90
48208;DHT22;33997;53.278;9.708;2023-04-29T00:52:14;8.80;99.90
48208;DHT22;33997;53.278;9.708;2023-04-29T00:54:40;8.80;99.90
48208;DHT22;33997;53.278;9.708;2023-04-29T00:57:06;8.80;99.80
48208;DHT22;33997;53.278;9.708;2023-04-29T00:59:32;8.80;99.80
48208;DHT22;33997;53.278;9.708;2023-04-29T01:02:02;8.70;99.90
48208;DHT22;33997;53.278;9.708;2023-04-29T01:04:28;8.70;99.80
48208;DHT22;33997;53.278;9.708;2023-04-29T01:07:13;8.70;99.90
48208;DHT22;33997;53.278;9.708;2023-04-29T01:10:08;8.70;99.80
48208;DHT22;33997;53.278;9.708;2023-04-29T01:17:43;8.60;99.80
48208;DHT22;33997;53.278;9.708;2023-04-29T01:20:12;8.70;99.80
48208;DHT22;33997;53.278;9.708;2023-04-29T01:22:37;8.70;99.80
48208;DHT22;33997;53.278;9.708;2023-04-29T01:25:03;8.70;99.80
48208;DHT22;33997;53.278;9.708;2023-04-29T01:30:45;8.70;99.90
48208;DHT22;33997;53.278;9.708;2023-04-29T01:33:40;8.60;99.80
48208;DHT22;33997;53.278;9.708;2023-04-29T01:36:35;8.60;99.90
48208;DHT22;33997;53.278;9.708;2023-04-29T01:39:28;8.50;99.70
48208;DHT22;33997;53.278;9.708;2023-04-29T01:42:09;8.50;99.80
48208;DHT22;33997;53.278;9.708;2023-04-29T01:44:35;8.50;99.80
48208;DHT22;33997;53.278;9.708;2023-04-29T01:47:02;8.50;99.80
48208;DHT22;33997;53.278;9.708;2023-04-29T01:49:28;8.50;99.70
48208;DHT22;33997;53.278;9.708;2023-04-29T01:51:54;8.50;99.80
48208;DHT22;33997;53.278;9.708;2023-04-29T01:54:20;8.50;99.80
48208;DHT22;33997;53.278;9.708;2023-04-29T01:56:46;8.50;99.80
48208;DHT22;33997;53.278;9.708;2023-04-29T01:59:12;8.40;99.80
48208;DHT22;33997;53.278;9.708;2023-04-29T02:01:37;8.40;99.80
48208;DHT22;33997;53.278;9.708;2023-04-29T02:04:03;8.40;99.80
48208;DHT22;33997;53.278;9.708;2023-04-29T02:06:29;8.50;99.90
48208;DHT22;33997;53.278;9.708;2023-04-29T02:08:56;8.40;99.80
48208;DHT22;33997;53.278;9.708;2023-04-29T02:11:22;8.40;99.80
48208;DHT22;33997;53.278;9.708;2023-04-29T02:13:47;8.40;99.70
48208;DHT22;33997;53.278;9.708;2023-04-29T02:16:14;8.40;99.90
48208;DHT22;33997;53.278;9.708;2023-04-29T02:18:40;8.40;99.90
48208;DHT22;33997;53.278;9.708;2023-04-29T02:21:06;8.40;99.90
48208;DHT22;33997;53.278;9.708;2023-04-29T02:23:32;8.40;99.90
48208;DHT22;33997;53.278;9.708;2023-04-29T02:25:58;8.40;99.90
48208;DHT22;33997;53.278;9.708;2023-04-29T02:28:23;8.40;99.90
48208;DHT22;33997;53.278;9.708;2023-04-29T02:30:49;8.40;99.90
48208;DHT22;33997;53.278;9.708;2023-04-29T02:33:15;8.40;99.90
48208;DHT22;33997;53.278;9.708;2023-04-29T02:35:40;8.30;99.90
48208;DHT22;33997;53.278;9.708;2023-04-29T02:38:06;8.30;99.90
48208;DHT22;33997;53.278;9.708;2023-04-29T02:40:32;8.30;99.80
48208;DHT22;33997;53.278;9.708;2023-04-29T02:42:57;8.30;99.90
48208;DHT22;33997;53.278;9.708;2023-04-29T02:45:23;8.30;99.90
48208;DHT22;33997;53.278;9.708;2023-04-29T02:47:48;8.30;99.90
48208;DHT22;33997;53.278;9.708;2023-04-29T02:50:14;8.30;99.90
48208;DHT22;33997;53.278;9.708;2023-04-29T02:52:39;8.30;99.90
48208;DHT22;33997;53.278;9.708;2023-04-29T02:55:06;8.30;99.90
48208;DHT22;33997;53.278;9.708;2023-04-29T02:57:32;8.20;99.90
48208;DHT22;33997;53.278;9.708;2023-04-29T02:59:58;8.20;99.90
48208;DHT22;33997;53.278;9.708;2023-04-29T03:02:23;8.20;99.90
48208;DHT22;33997;53.278;9.708;2023-04-29T03:04:49;8.20;99.90
48208;DHT22;33997;53.278;9.708;2023-04-29T03:07:14;8.20;99.90
48208;DHT22;33997;53.278;9.708;2023-04-29T03:09:41;8.10;99.80
48208;DHT22;33997;53.278;9.708;2023-04-29T03:12:07;8.10;99.90
48208;DHT22;33997;53.278;9.708;2023-04-29T03:14:32;8.20;99.90
48208;DHT22;33997;53.278;9.708;2023-04-29T03:16:58;8.20;99.90
48208;DHT22;33997;53.278;9.708;2023-04-29T03:19:23;8.10;99.90
48208;DHT22;33997;53.278;9.708;2023-04-29T03:21:49;8.10;99.90
48208;DHT22;33997;53.278;9.708;2023-04-29T03:24:14;8.20;99.90
48208;DHT22;33997;53.278;9.708;2023-04-29T03:26:40;8.10;99.90
48208;DHT22;33997;53.278;9.708;2023-04-29T03:29:07;8.10;99.90
48208;DHT22;33997;53.278;9.708;2023-04-29T03:31:33;8.10;99.90
48208;DHT22;33997;53.278;9.708;2023-04-29T03:33:58;8.10;99.90
48208;DHT22;33997;53.278;9.708;2023-04-29T03:36:24;8.10;99.90
48208;DHT22;33997;53.278;9.708;2023-04-29T03:38:49;8.00;99.90
48208;DHT22;33997;53.278;9.708;2023-04-29T03:41:15;8.10;99.90
48208;DHT22;33997;53.278;9.708;2023-04-29T03:43:41;8.10;99.90
48208;DHT22;33997;53.278;9.708;2023-04-29T03:46:08;8.00;99.90
48208;DHT22;33997;53.278;9.708;2023-04-29T03:48:34;8.00;99.80
48208;DHT22;33997;53.278;9.708;2023-04-29T03:51:00;8.00;99.90
48208;DHT22;33997;53.278;9.708;2023-04-29T03:53:25;7.90;99.80
48208;DHT22;33997;53.278;9.708;2023-04-29T03:55:51;8.00;99.90
48208;DHT22;33997;53.278;9.708;2023-04-29T03:58:16;7.90;99.80
48208;DHT22;33997;53.278;9.708;2023-04-29T04:00:42;7.80;99.70
48208;DHT22;33997;53.278;9.708;2023-04-29T04:03:07;7.80;99.80
48208;DHT22;33997;53.278;9.708;2023-04-29T04:05:33;7.70;99.70
48208;DHT22;33997;53.278;9.708;2023-04-29T04:07:58;7.70;99.80
48208;DHT22;33997;53.278;9.708;2023-04-29T04:10:25;7.80;99.80
48208;DHT22;33997;53.278;9.708;2023-04-29T04:12:50;7.80;99.90
48208;DHT22;33997;53.278;9.708;2023-04-29T04:15:16;7.80;99.80
48208;DHT22;33997;53.278;9.708;2023-04-29T04:17:41;7.80;99.80
48208;DHT22;33997;53.278;9.708;2023-04-29T04:20:07;7.80;99.80
48208;DHT22;33997;53.278;9.708;2023-04-29T04:22:33;7.70;99.70
48208;DHT22;33997;53.278;9.708;2023-04-29T04:24:58;7.80;99.80
48208;DHT22;33997;53.278;9.708;2023-04-29T04:27:24;7.80;99.80
48208;DHT22;33997;53.278;9.708;2023-04-29T04:29:53;7.70;99.70
48208;DHT22;33997;53.278;9.708;2023-04-29T04:32:22;7.70;99.70
48208;DHT22;33997;53.278;9.708;2023-04-29T04:34:49;7.80;99.80
48208;DHT22;33997;53.278;9.708;2023-04-29T04:37:15;7.80;99.70
48208;DHT22;33997;53.278;9.708;2023-04-29T04:39:40;7.80;99.70
48208;DHT22;33997;53.278;9.708;2023-04-29T04:42:06;7.80;99.70
48208;DHT22;33997;53.278;9.708;2023-04-29T04:44:31;7.80;99.60
48208;DHT22;33997;53.278;9.708;2023-04-29T04:46:58;7.80;99.70
48208;DHT22;33997;53.278;9.708;2023-04-29T04:49:25;7.80;99.60
48208;DHT22;33997;53.278;9.708;2023-04-29T04:51:51;7.80;99.60
48208;DHT22;33997;53.278;9.708;2023-04-29T04:54:17;7.80;99.50
48208;DHT22;33997;53.278;9.708;2023-04-29T04:56:42;7.90;99.50
48208;DHT22;33997;53.278;9.708;2023-04-29T04:59:08;8.00;99.60
48208;DHT22;33997;53.278;9.708;2023-04-29T05:01:34;8.00;99.50
48208;DHT22;33997;53.278;9.708;2023-04-29T05:03:59;8.00;99.50
48208;DHT22;33997;53.278;9.708;2023-04-29T05:06:26;8.10;99.40
48208;DHT22;33997;53.278;9.708;2023-04-29T05:08:52;8.10;99.30
48208;DHT22;33997;53.278;9.708;2023-04-29T05:11:18;8.20;99.30
48208;DHT22;33997;53.278;9.708;2023-04-29T05:13:44;8.30;99.30
48208;DHT22;33997;53.278;9.708;2023-04-29T05:16:10;8.30;99.20
48208;DHT22;33997;53.278;9.708;2023-04-29T05:18:38;8.30;98.90
48208;DHT22;33997;53.278;9.708;2023-04-29T05:21:04;8.40;99.00
48208;DHT22;33997;53.278;9.708;2023-04-29T05:23:30;8.40;98.80
48208;DHT22;33997;53.278;9.708;2023-04-29T05:25:55;8.50;98.90
48208;DHT22;33997;53.278;9.708;2023-04-29T05:28:21;8.50;98.90
48208;DHT22;33997;53.278;9.708;2023-04-29T05:30:50;8.50;98.80
48208;DHT22;33997;53.278;9.708;2023-04-29T05:33:15;8.50;98.80
48208;DHT22;33997;53.278;9.708;2023-04-29T05:35:41;8.50;98.80
48208;DHT22;33997;53.278;9.708;2023-04-29T05:38:06;8.40;98.60
48208;DHT22;33997;53.278;9.708;2023-04-29T05:40:32;8.50;98.80
48208;DHT22;33997;53.278;9.708;2023-04-29T05:42:57;8.60;98.80
48208;DHT22;33997;53.278;9.708;2023-04-29T05:45:24;8.60;98.50
48208;DHT22;33997;53.278;9.708;2023-04-29T05:47:49;8.50;98.30
48208;DHT22;33997;53.278;9.708;2023-04-29T05:50:15;8.60;98.40
48208;DHT22;33997;53.278;9.708;2023-04-29T05:52:40;8.60;98.40
48208;DHT22;33997;53.278;9.708;2023-04-29T05:55:06;8.70;98.30
48208;DHT22;33997;53.278;9.708;2023-04-29T05:57:32;8.60;98.00
48208;DHT22;33997;53.278;9.708;2023-04-29T05:59:57;8.60;98.10
48208;DHT22;33997;53.278;9.708;2023-04-29T06:02:24;8.50;98.00
48208;DHT22;33997;53.278;9.708;2023-04-29T06:04:50;8.60;98.10
48208;DHT22;33997;53.278;9.708;2023-04-29T06:07:15;8.60;98.20
48208;DHT22;33997;53.278;9.708;2023-04-29T06:09:42;8.60;98.00
48208;DHT22;33997;53.278;9.708;2023-04-29T06:12:08;8.60;98.00
48208;DHT22;33997;53.278;9.708;2023-04-29T06:14:33;8.70;98.20
48208;DHT22;33997;53.278;9.708;2023-04-29T06:16:59;8.80;98.00
48208;DHT22;33997;53.278;9.708;2023-04-29T06:19:24;8.80;97.90
48208;DHT22;33997;53.278;9.708;2023-04-29T06:21:50;8.80;97.70
48208;DHT22;33997;53.278;9.708;2023-04-29T06:24:16;8.80;97.50
48208;DHT22;33997;53.278;9.708;2023-04-29T06:26:41;8.80;97.60
48208;DHT22;33997;53.278;9.708;2023-04-29T06:29:07;8.90;97.30
48208;DHT22;33997;53.278;9.708;2023-04-29T06:31:32;8.90;97.30
48208;DHT22;33997;53.278;9.708;2023-04-29T06:33:58;9.10;97.30
48208;DHT22;33997;53.278;9.708;2023-04-29T06:36:23;9.30;97.00
48208;DHT22;33997;53.278;9.708;2023-04-29T06:38:49;9.20;96.60
48208;DHT22;33997;53.278;9.708;2023-04-29T06:41:14;9.30;96.70
48208;DHT22;33997;53.278;9.708;2023-04-29T06:43:40;9.30;96.40
48208;DHT22;33997;53.278;9.708;2023-04-29T06:46:07;9.50;96.50
48208;DHT22;33997;53.278;9.708;2023-04-29T06:48:33;9.50;96.10
48208;DHT22;33997;53.278;9.708;2023-04-29T06:50:58;9.40;96.00
48208;DHT22;33997;53.278;9.708;2023-04-29T06:53:24;9.40;95.40
48208;DHT22;33997;53.278;9.708;2023-04-29T06:55:50;9.40;95.00
48208;DHT22;33997;53.278;9.708;2023-04-29T06:58:17;9.60;95.00
48208;DHT22;33997;53.278;9.708;2023-04-29T07:00:44;9.60;94.70
48208;DHT22;33997;53.278;9.708;2023-04-29T07:03:10;9.50;94.00
48208;DHT22;33997;53.278;9.708;2023-04-29T07:05:36;9.60;94.10
48208;DHT22;33997;53.278;9.708;2023-04-29T07:08:05;9.70;94.00
48208;DHT22;33997;53.278;9.708;2023-04-29T07:10:31;10.10;94.60
48208;DHT22;33997;53.278;9.708;2023-04-29T07:12:56;10.00;93.80
48208;DHT22;33997;53.278;9.708;2023-04-29T07:15:21;10.10;93.70
48208;DHT22;33997;53.278;9.708;2023-04-29T07:17:47;9.90;92.80
48208;DHT22;33997;53.278;9.708;2023-04-29T07:20:13;10.20;93.70
48208;DHT22;33997;53.278;9.708;2023-04-29T07:22:38;10.30;92.90
48208;DHT22;33997;53.278;9.708;2023-04-29T07:25:04;10.60;93.50
48208;DHT22;33997;53.278;9.708;2023-04-29T07:27:32;10.60;92.20
48208;DHT22;33997;53.278;9.708;2023-04-29T07:29:59;10.50;91.40
48208;DHT22;33997;53.278;9.708;2023-04-29T07:32:25;10.60;91.90
48208;DHT22;33997;53.278;9.708;2023-04-29T07:34:51;10.50;91.00
48208;DHT22;33997;53.278;9.708;2023-04-29T07:37:17;10.90;91.90
48208;DHT22;33997;53.278;9.708;2023-04-29T07:39:42;11.00;91.90
48208;DHT22;33997;53.278;9.708;2023-04-29T07:42:08;11.10;91.50
48208;DHT22;33997;53.278;9.708;2023-04-29T07:44:33;11.00;90.00
48208;DHT22;33997;53.278;9.708;2023-04-29T07:46:59;11.10;90.10
48208;DHT22;33997;53.278;9.708;2023-04-29T07:49:24;10.90;88.40
48208;DHT22;33997;53.278;9.708;2023-04-29T07:51:50;11.00;89.30
48208;DHT22;33997;53.278;9.708;2023-04-29T07:54:16;11.20;89.00
48208;DHT22;33997;53.278;9.708;2023-04-29T07:56:41;11.30;88.60
48208;DHT22;33997;53.278;9.708;2023-04-29T07:59:07;11.20;88.30
48208;DHT22;33997;53.278;9.708;2023-04-29T08:01:32;11.30;89.00
48208;DHT22;33997;53.278;9.708;2023-04-29T08:03:57;11.40;87.80
48208;DHT22;33997;53.278;9.708;2023-04-29T08:06:23;11.20;86.30
48208;DHT22;33997;53.278;9.708;2023-04-29T08:08:49;11.10;87.40
48208;DHT22;33997;53.278;9.708;2023-04-29T08:11:18;11.30;86.40
48208;DHT22;33997;53.278;9.708;2023-04-29T08:13:44;11.20;85.40
48208;DHT22;33997;53.278;9.708;2023-04-29T08:16:10;11.50;87.50
48208;DHT22;33997;53.278;9.708;2023-04-29T08:18:35;11.70;85.90
48208;DHT22;33997;53.278;9.708;2023-04-29T08:21:01;11.90;85.20
48208;DHT22;33997;53.278;9.708;2023-04-29T08:23:27;11.90;83.60
48208;DHT22;33997;53.278;9.708;2023-04-29T08:25:52;12.20;83.00
48208;DHT22;33997;53.278;9.708;2023-04-29T08:28:20;12.20;81.60
48208;DHT22;33997;53.278;9.708;2023-04-29T08:30:46;12.70;81.70
48208;DHT22;33997;53.278;9.708;2023-04-29T08:33:11;13.00;81.10
48208;DHT22;33997;53.278;9.708;2023-04-29T08:35:37;13.00;81.10
48208;DHT22;33997;53.278;9.708;2023-04-29T08:38:04;12.60;78.20
48208;DHT22;33997;53.278;9.708;2023-04-29T08:40:33;12.90;78.70
48208;DHT22;33997;53.278;9.708;2023-04-29T08:43:00;13.20;76.80
48208;DHT22;33997;53.278;9.708;2023-04-29T08:45:26;13.60;77.70
48208;DHT22;33997;53.278;9.708;2023-04-29T08:47:53;14.00;77.00
48208;DHT22;33997;53.278;9.708;2023-04-29T08:50:20;14.20;77.10
48208;DHT22;33997;53.278;9.708;2023-04-29T08:52:46;13.90;74.80
48208;DHT22;33997;53.278;9.708;2023-04-29T08:55:12;13.40;75.10
48208;DHT22;33997;53.278;9.708;2023-04-29T08:57:38;13.50;76.10
48208;DHT22;33997;53.278;9.708;2023-04-29T09:00:08;13.70;77.60
48208;DHT22;33997;53.278;9.708;2023-04-29T09:02:40;13.60;76.70
48208;DHT22;33997;53.278;9.708;2023-04-29T09:05:08;13.40;76.30
48208;DHT22;33997;53.278;9.708;2023-04-29T09:07:36;13.60;74.90
48208;DHT22;33997;53.278;9.708;2023-04-29T09:10:06;13.70;76.20
48208;DHT22;33997;53.278;9.708;2023-04-29T09:12:31;14.00;75.70
48208;DHT22;33997;53.278;9.708;2023-04-29T09:14:57;14.30;75.30
48208;DHT22;33997;53.278;9.708;2023-04-29T09:17:45;13.80;71.80
48208;DHT22;33997;53.278;9.708;2023-04-29T09:22:59;14.00;71.50
48208;DHT22;33997;53.278;9.708;2023-04-29T09:25:25;14.50;71.10
48208;DHT22;33997;53.278;9.708;2023-04-29T09:27:52;14.60;71.50
48208;DHT22;33997;53.278;9.708;2023-04-29T09:30:18;14.20;69.10
48208;DHT22;33997;53.278;9.708;2023-04-29T09:32:44;14.60;71.50
48208;DHT22;33997;53.278;9.708;2023-04-29T09:35:24;14.20;69.10
48208;DHT22;33997;53.278;9.708;2023-04-29T09:37:51;14.20;70.00
48208;DHT22;33997;53.278;9.708;2023-04-29T09:40:31;13.80;66.30
48208;DHT22;33997;53.278;9.708;2023-04-29T09:42:58;13.60;66.60
48208;DHT22;33997;53.278;9.708;2023-04-29T09:45:37;14.00;69.60
48208;DHT22;33997;53.278;9.708;2023-04-29T09:48:04;14.20;68.60
48208;DHT22;33997;53.278;9.708;2023-04-29T09:50:31;14.10;67.80
48208;DHT22;33997;53.278;9.708;2023-04-29T09:52:57;14.50;66.70
48208;DHT22;33997;53.278;9.708;2023-04-29T09:55:22;14.20;65.90
48208;DHT22;33997;53.278;9.708;2023-04-29T09:57:48;14.40;65.80
48208;DHT22;33997;53.278;9.708;2023-04-29T10:00:13;15.00;67.00
48208;DHT22;33997;53.278;9.708;2023-04-29T10:02:41;14.70;64.70
48208;DHT22;33997;53.278;9.708;2023-04-29T10:05:09;14.90;64.00
48208;DHT22;33997;53.278;9.708;2023-04-29T10:07:35;15.10;65.10
48208;DHT22;33997;53.278;9.708;2023-04-29T10:10:03;15.50;64.20
48208;DHT22;33997;53.278;9.708;2023-04-29T10:12:30;15.80;63.40
48208;DHT22;33997;53.278;9.708;2023-04-29T10:15:03;16.10;64.00
48208;DHT22;33997;53.278;9.708;2023-04-29T10:17:42;15.60;62.60
48208;DHT22;33997;53.278;9.708;2023-04-29T10:20:16;15.20;60.90
48208;DHT22;33997;53.278;9.708;2023-04-29T10:22:54;15.40;61.50
48208;DHT22;33997;53.278;9.708;2023-04-29T10:25:22;15.60;63.60
48208;DHT22;33997;53.278;9.708;2023-04-29T10:27:49;15.50;61.10
48208;DHT22;33997;53.278;9.708;2023-04-29T10:30:18;15.90;64.70
48208;DHT22;33997;53.278;9.708;2023-04-29T10:32:45;16.40;63.90
48208;DHT22;33997;53.278;9.708;2023-04-29T10:35:12;16.20;60.10
48208;DHT22;33997;53.278;9.708;2023-04-29T10:37:40;16.20;65.00
48208;DHT22;33997;53.278;9.708;2023-04-29T10:40:11;16.20;57.90
48208;DHT22;33997;53.278;9.708;2023-04-29T10:42:52;16.00;60.20
48208;DHT22;33997;53.278;9.708;2023-04-29T10:45:28;15.90;61.40
48208;DHT22;33997;53.278;9.708;2023-04-29T10:53:11;15.90;62.40
48208;DHT22;33997;53.278;9.708;2023-04-29T10:55:37;15.50;62.00
48208;DHT22;33997;53.278;9.708;2023-04-29T10:58:04;16.10;63.10
48208;DHT22;33997;53.278;9.708;2023-04-29T11:00:32;16.30;61.40
48208;DHT22;33997;53.278;9.708;2023-04-29T11:02:59;16.40;63.70
48208;DHT22;33997;53.278;9.708;2023-04-29T11:05:33;15.80;62.30
48208;DHT22;33997;53.278;9.708;2023-04-29T11:08:19;15.80;62.90
48208;DHT22;33997;53.278;9.708;2023-04-29T11:10:52;16.00;61.60
48208;DHT22;33997;53.278;9.708;2023-04-29T11:13:24;16.00;61.10
48208;DHT22;33997;53.278;9.708;2023-04-29T11:15:52;16.30;60.60
48208;DHT22;33997;53.278;9.708;2023-04-29T11:18:17;15.80;61.10
48208;DHT22;33997;53.278;9.708;2023-04-29T11:23:33;16.20;61.70
48208;DHT22;33997;53.278;9.708;2023-04-29T11:26:00;15.60;62.60
48208;DHT22;33997;53.278;9.708;2023-04-29T11:28:26;15.70;62.40
48208;DHT22;33997;53.278;9.708;2023-04-29T11:30:53;16.30;60.70
48208;DHT22;33997;53.278;9.708;2023-04-29T11:33:21;16.00;62.90
48208;DHT22;33997;53.278;9.708;2023-04-29T11:35:47;15.40;61.50
48208;DHT22;33997;53.278;9.708;2023-04-29T11:38:13;15.10;62.50
48208;DHT22;33997;53.278;9.708;2023-04-29T11:40:47;15.10;62.40
48208;DHT22;33997;53.278;9.708;2023-04-29T11:43:16;16.00;62.20
48208;DHT22;33997;53.278;9.708;2023-04-29T11:45:46;17.00;58.70
48208;DHT22;33997;53.278;9.708;2023-04-29T11:48:19;16.70;58.20
48208;DHT22;33997;53.278;9.708;2023-04-29T11:50:48;15.30;58.80
48208;DHT22;33997;53.278;9.708;2023-04-29T11:53:14;16.00;59.20
48208;DHT22;33997;53.278;9.708;2023-04-29T11:55:44;16.90;57.90
48208;DHT22;33997;53.278;9.708;2023-04-29T11:58:10;17.60;56.20
48208;DHT22;33997;53.278;9.708;2023-04-29T12:00:36;16.90;56.80
48208;DHT22;33997;53.278;9.708;2023-04-29T12:03:12;15.80;57.50
48208;DHT22;33997;53.278;9.708;2023-04-29T12:05:37;15.30;60.00
48208;DHT22;33997;53.278;9.708;2023-04-29T12:08:06;15.40;62.40
48208;DHT22;33997;53.278;9.708;2023-04-29T12:10:35;15.50;60.80
48208;DHT22;33997;53.278;9.708;2023-04-29T12:13:01;15.00;61.80
48208;DHT22;33997;53.278;9.708;2023-04-29T12:15:28;14.90;62.50
48208;DHT22;33997;53.278;9.708;2023-04-29T12:17:54;14.70;63.70
48208;DHT22;33997;53.278;9.708;2023-04-29T12:20:19;15.50;61.80
48208;DHT22;33997;53.278;9.708;2023-04-29T12:22:45;16.10;58.40
48208;DHT22;33997;53.278;9.708;2023-04-29T12:25:11;16.80;57.90
48208;DHT22;33997;53.278;9.708;2023-04-29T12:27:39;17.00;53.70
48208;DHT22;33997;53.278;9.708;2023-04-29T12:30:07;16.70;56.50
48208;DHT22;33997;53.278;9.708;2023-04-29T12:32:37;17.20;55.10
48208;DHT22;33997;53.278;9.708;2023-04-29T12:35:03;17.70;51.40
48208;DHT22;33997;53.278;9.708;2023-04-29T12:37:28;17.80;50.70
48208;DHT22;33997;53.278;9.708;2023-04-29T12:39:54;18.30;53.30
48208;DHT22;33997;53.278;9.708;2023-04-29T12:42:20;17.30;52.80
48208;DHT22;33997;53.278;9.708;2023-04-29T12:44:47;16.90;52.70
48208;DHT22;33997;53.278;9.708;2023-04-29T12:47:13;16.70;54.10
48208;DHT22;33997;53.278;9.708;2023-04-29T12:49:43;16.10;55.10
48208;DHT22;33997;53.278;9.708;2023-04-29T12:52:09;16.50;54.00
48208;DHT22;33997;53.278;9.708;2023-04-29T12:54:38;17.00;51.70
48208;DHT22;33997;53.278;9.708;2023-04-29T12:57:08;17.50;51.30
48208;DHT22;33997;53.278;9.708;2023-04-29T12:59:34;17.90;50.80
48208;DHT22;33997;53.278;9.708;2023-04-29T13:02:00;18.20;49.80
48208;DHT22;33997;53.278;9.708;2023-04-29T13:04:25;19.00;48.00
48208;DHT22;33997;53.278;9.708;2023-04-29T13:06:51;19.00;49.60
48208;DHT22;33997;53.278;9.708;2023-04-29T13:09:23;17.60;48.00
48208;DHT22;33997;53.278;9.708;2023-04-29T13:11:48;17.90;50.20
48208;DHT22;33997;53.278;9.708;2023-04-29T13:14:14;18.00;47.60
48208;DHT22;33997;53.278;9.708;2023-04-29T13:16:40;17.60;46.30
48208;DHT22;33997;53.278;9.708;2023-04-29T13:19:06;17.60;47.30
48208;DHT22;33997;53.278;9.708;2023-04-29T13:21:31;18.10;46.50
48208;DHT22;33997;53.278;9.708;2023-04-29T13:23:57;18.30;48.20
48208;DHT22;33997;53.278;9.708;2023-04-29T13:26:22;18.30;47.20
48208;DHT22;33997;53.278;9.708;2023-04-29T13:28:49;17.90;46.90
48208;DHT22;33997;53.278;9.708;2023-04-29T13:31:15;18.80;46.30
48208;DHT22;33997;53.278;9.708;2023-04-29T13:33:40;17.60;46.10
48208;DHT22;33997;53.278;9.708;2023-04-29T13:36:07;17.50;48.00
48208;DHT22;33997;53.278;9.708;2023-04-29T13:38:33;18.30;47.00
48208;DHT22;33997;53.278;9.708;2023-04-29T13:40:59;18.40;46.90
48208;DHT22;33997;53.278;9.708;2023-04-29T13:43:24;18.80;44.50
48208;DHT22;33997;53.278;9.708;2023-04-29T13:45:50;18.30;45.10
48208;DHT22;33997;53.278;9.708;2023-04-29T13:48:15;18.20;44.00
48208;DHT22;33997;53.278;9.708;2023-04-29T13:50:41;18.30;43.90
48208;DHT22;33997;53.278;9.708;2023-04-29T13:53:06;18.20;44.30
48208;DHT22;33997;53.278;9.708;2023-04-29T13:55:32;18.30;44.90
48208;DHT22;33997;53.278;9.708;2023-04-29T13:58:01;18.10;44.30
48208;DHT22;33997;53.278;9.708;2023-04-29T14:00:26;18.00;44.40
48208;DHT22;33997;53.278;9.708;2023-04-29T14:02:52;18.00;44.80
48208;DHT22;33997;53.278;9.708;2023-04-29T14:05:17;17.40;43.90
48208;DHT22;33997;53.278;9.708;2023-04-29T14:07:43;18.10;45.90
48208;DHT22;33997;53.278;9.708;2023-04-29T14:10:09;18.50;44.60
48208;DHT22;33997;53.278;9.708;2023-04-29T14:12:34;18.60;45.30
48208;DHT22;33997;53.278;9.708;2023-04-29T14:15:00;19.00;42.80
48208;DHT22;33997;53.278;9.708;2023-04-29T14:17:26;19.20;44.90
48208;DHT22;33997;53.278;9.708;2023-04-29T14:19:51;19.80;43.60
48208;DHT22;33997;53.278;9.708;2023-04-29T14:22:17;19.60;42.70
48208;DHT22;33997;53.278;9.708;2023-04-29T14:24:42;19.10;43.90
48208;DHT22;33997;53.278;9.708;2023-04-29T14:27:08;19.10;43.60
48208;DHT22;33997;53.278;9.708;2023-04-29T14:29:33;19.50;43.20
48208;DHT22;33997;53.278;9.708;2023-04-29T14:31:59;19.10;42.70
48208;DHT22;33997;53.278;9.708;2023-04-29T14:34:24;18.70;43.30
48208;DHT22;33997;53.278;9.708;2023-04-29T14:36:50;19.30;43.70
48208;DHT22;33997;53.278;9.708;2023-04-29T14:39:16;19.80;41.90
48208;DHT22;33997;53.278;9.708;2023-04-29T14:41:42;19.90;40.50
48208;DHT22;33997;53.278;9.708;2023-04-29T14:44:08;19.50;41.20
48208;DHT22;33997;53.278;9.708;2023-04-29T14:46:33;19.00;41.40
48208;DHT22;33997;53.278;9.708;2023-04-29T14:48:59;18.10;42.70
48208;DHT22;33997;53.278;9.708;2023-04-29T14:51:24;18.30;42.60
48208;DHT22;33997;53.278;9.708;2023-04-29T14:53:51;19.30;40.40
48208;DHT22;33997;53.278;9.708;2023-04-29T14:56:17;17.80;42.80
48208;DHT22;33997;53.278;9.708;2023-04-29T14:58:42;18.60;42.70
48208;DHT22;33997;53.278;9.708;2023-04-29T15:01:08;19.10;42.00
48208;DHT22;33997;53.278;9.708;2023-04-29T15:03:33;19.00;42.90
48208;DHT22;33997;53.278;9.708;2023-04-29T15:06:02;19.10;41.20
48208;DHT22;33997;53.278;9.708;2023-04-29T15:08:29;18.90;42.40
48208;DHT22;33997;53.278;9.708;2023-04-29T15:10:54;18.20;42.40
48208;DHT22;33997;53.278;9.708;2023-04-29T15:13:20;17.80;43.20
48208;DHT22;33997;53.278;9.708;2023-04-29T15:15:46;17.60;43.90
48208;DHT22;33997;53.278;9.708;2023-04-29T15:18:11;18.20;45.20
48208;DHT22;33997;53.278;9.708;2023-04-29T15:20:37;18.10;43.70
48208;DHT22;33997;53.278;9.708;2023-04-29T15:23:03;18.30;44.40
48208;DHT22;33997;53.278;9.708;2023-04-29T15:25:29;19.00;43.80
48208;DHT22;33997;53.278;9.708;2023-04-29T15:27:55;18.30;45.50
48208;DHT22;33997;53.278;9.708;2023-04-29T15:30:21;18.60;45.40
48208;DHT22;33997;53.278;9.708;2023-04-29T15:32:46;19.10;45.90
48208;DHT22;33997;53.278;9.708;2023-04-29T15:35:12;18.50;48.70
48208;DHT22;33997;53.278;9.708;2023-04-29T15:37:37;18.10;48.30
48208;DHT22;33997;53.278;9.708;2023-04-29T15:40:03;17.70;49.20
48208;DHT22;33997;53.278;9.708;2023-04-29T15:42:29;18.10;49.40
48208;DHT22;33997;53.278;9.708;2023-04-29T15:44:55;17.50;50.70
48208;DHT22;33997;53.278;9.708;2023-04-29T15:47:20;16.90;52.40
48208;DHT22;33997;53.278;9.708;2023-04-29T15:49:47;16.00;54.60
48208;DHT22;33997;53.278;9.708;2023-04-29T15:52:12;15.80;56.50
48208;DHT22;33997;53.278;9.708;2023-04-29T15:54:38;15.50;58.20